createdAt,value
2023-10-26T00:01:28.313Z,98369.12
2023-10-26T00:03:56.837Z,98369.89
2023-10-26T00:06:25.621Z,98367.07
2023-10-26T00:08:56.265Z,98364.06
2023-10-26T00:11:27.106Z,98364.73
2023-10-26T00:13:58.217Z,98368.24
2023-10-26T00:16:26.606Z,98366.55
2023-10-26T00:18:56.568Z,98365.05
2023-10-26T00:21:25.032Z,98362.98
2023-10-26T00:23:53.607Z,98361.65
2023-10-26T00:26:22.248Z,98357.25
2023-10-26T00:28:51.586Z,98353.86
2023-10-26T00:31:20.240Z,98344.27
2023-10-26T00:33:48.556Z,98344.64
2023-10-26T00:36:16.970Z,98347.66
2023-10-26T00:38:45.542Z,98350.40
2023-10-26T00:41:14.078Z,98353.58
2023-10-26T00:43:50.352Z,98353.92
2023-10-26T00:46:21.188Z,98347.00
2023-10-26T00:48:54.102Z,98343.79
2023-10-26T00:51:27.239Z,98341.82
2023-10-26T00:53:59.739Z,98339.30
2023-10-26T00:56:30.675Z,98333.82
2023-10-26T00:58:59.937Z,98330.31
2023-10-26T01:01:28.622Z,98332.48
2023-10-26T01:03:57.708Z,98326.40
2023-10-26T01:06:26.527Z,98325.54
2023-10-26T01:08:55.227Z,98328.66
2023-10-26T01:11:23.767Z,98330.56
2023-10-26T01:13:52.411Z,98332.28
2023-10-26T01:16:21.430Z,98332.71
2023-10-26T01:18:49.886Z,98333.86
2023-10-26T01:21:18.680Z,98331.58
2023-10-26T01:23:47.409Z,98332.98
2023-10-26T01:26:15.813Z,98332.79
2023-10-26T01:28:44.412Z,98317.16
2023-10-26T01:31:17.538Z,98296.45
2023-10-26T01:33:46.590Z,98296.70
2023-10-26T01:36:15.059Z,98312.41
2023-10-26T01:38:43.519Z,98316.52
2023-10-26T01:41:12.502Z,98310.86
2023-10-26T01:43:41.056Z,98308.17
2023-10-26T01:46:09.439Z,98304.19
2023-10-26T01:48:37.873Z,98295.57
2023-10-26T01:51:06.967Z,98287.85
2023-10-26T01:53:35.456Z,98274.26
2023-10-26T01:56:04.626Z,98271.20
2023-10-26T01:58:33.055Z,98266.41
2023-10-26T02:01:01.614Z,98261.59
2023-10-26T02:03:30.342Z,98249.98
2023-10-26T02:05:58.976Z,98239.59
2023-10-26T02:08:27.565Z,98228.45
2023-10-26T02:10:56.084Z,98227.48
2023-10-26T02:13:24.790Z,98233.72
2023-10-26T02:15:53.123Z,98232.91
2023-10-26T02:18:21.605Z,98239.13
2023-10-26T02:20:50.465Z,98241.77
2023-10-26T02:23:19.079Z,98245.20
2023-10-26T02:25:47.539Z,98235.81
2023-10-26T02:28:17.060Z,98231.48
2023-10-26T02:30:45.902Z,98232.98
2023-10-26T02:33:14.408Z,98231.58
2023-10-26T02:35:44.575Z,98221.93
2023-10-26T02:38:13.129Z,98221.14
2023-10-26T02:40:41.648Z,98221.18
2023-10-26T02:43:10.581Z,98209.40
2023-10-26T02:45:40.070Z,98199.91
2023-10-26T02:48:08.454Z,98198.61
2023-10-26T02:50:36.973Z,98196.38
2023-10-26T02:53:05.358Z,98191.15
2023-10-26T02:55:33.723Z,98186.45
2023-10-26T02:58:02.683Z,98181.23
2023-10-26T03:00:30.990Z,98178.33
2023-10-26T03:02:59.795Z,98184.16
2023-10-26T03:05:28.367Z,98184.10
2023-10-26T03:07:56.691Z,98186.50
2023-10-26T03:10:25.112Z,98187.09
2023-10-26T03:12:53.659Z,98190.70
2023-10-26T03:15:22.349Z,98192.52
2023-10-26T03:17:50.941Z,98189.55
2023-10-26T03:20:19.562Z,98192.05
2023-10-26T03:22:48.077Z,98185.84
2023-10-26T03:25:17.354Z,98178.27
2023-10-26T03:27:45.783Z,98182.29
2023-10-26T03:30:14.683Z,98174.91
2023-10-26T03:32:43.717Z,98171.51
2023-10-26T03:35:12.492Z,98163.59
2023-10-26T03:37:42.773Z,98167.67
2023-10-26T03:40:14.037Z,98167.63
2023-10-26T03:42:42.773Z,98153.41
2023-10-26T03:45:12.579Z,98155.02
2023-10-26T03:47:41.851Z,98156.02
2023-10-26T03:50:11.028Z,98146.66
2023-10-26T03:52:39.636Z,98141.86
2023-10-26T03:55:09.339Z,98139.23
2023-10-26T03:57:38.148Z,98140.13
2023-10-26T04:00:10.145Z,98120.48
2023-10-26T04:02:41.460Z,98138.45
2023-10-26T04:05:11.300Z,98130.84
2023-10-26T04:07:40.405Z,98125.97
2023-10-26T04:10:10.588Z,98123.15
2023-10-26T04:12:39.054Z,98123.91
2023-10-26T04:15:09.311Z,98114.38
2023-10-26T04:17:38.069Z,98113.52
2023-10-26T04:20:09.607Z,98110.35
2023-10-26T04:22:38.084Z,98106.45
2023-10-26T04:25:09.040Z,98106.05
2023-10-26T04:27:37.434Z,98100.47
2023-10-26T04:30:08.374Z,98097.98
2023-10-26T04:32:36.975Z,98091.48
2023-10-26T04:35:07.450Z,98086.66
2023-10-26T04:37:35.784Z,98087.81
2023-10-26T04:40:06.820Z,98087.71
2023-10-26T04:42:35.238Z,98084.79
2023-10-26T04:45:05.095Z,98078.92
2023-10-26T04:47:33.646Z,98078.16
2023-10-26T04:50:04.167Z,98072.16
2023-10-26T04:52:33.113Z,98071.04
2023-10-26T04:55:01.475Z,98067.40
2023-10-26T04:57:29.914Z,98069.39
2023-10-26T04:59:58.239Z,98068.64
2023-10-26T05:02:26.735Z,98061.85
2023-10-26T05:04:55.346Z,98056.10
2023-10-26T05:07:23.822Z,98052.49
2023-10-26T05:09:52.404Z,98050.30
2023-10-26T05:12:20.885Z,98051.02
2023-10-26T05:14:49.508Z,98050.43
2023-10-26T05:17:17.969Z,98047.45
2023-10-26T05:19:46.320Z,98052.36
2023-10-26T05:22:14.728Z,98047.34
2023-10-26T05:24:45.162Z,98046.75
2023-10-26T05:27:13.850Z,98042.77
2023-10-26T05:29:43.353Z,98041.51
2023-10-26T05:32:14.352Z,98042.79
2023-10-26T05:34:45.660Z,98048.48
2023-10-26T05:37:14.566Z,98044.23
2023-10-26T05:39:42.964Z,98040.02
2023-10-26T05:42:11.458Z,98039.67
2023-10-26T05:44:39.809Z,98042.58
2023-10-26T05:47:08.839Z,98040.23
2023-10-26T05:49:37.367Z,98044.57
2023-10-26T05:52:07.065Z,98048.44
2023-10-26T05:54:35.460Z,98038.41
2023-10-26T05:57:04.613Z,98042.50
2023-10-26T05:59:33.058Z,98050.36
2023-10-26T06:02:01.427Z,98052.25
2023-10-26T06:04:29.808Z,98053.15
2023-10-26T06:07:01.153Z,98054.14
2023-10-26T06:09:29.569Z,98056.20
2023-10-26T06:11:58.202Z,98052.02
2023-10-26T06:14:26.644Z,98050.14
2023-10-26T06:16:55.046Z,98056.30
2023-10-26T06:19:23.466Z,98052.68
2023-10-26T06:21:51.953Z,98054.23
2023-10-26T06:24:20.402Z,98057.58
2023-10-26T06:26:48.866Z,98061.83
2023-10-26T06:29:17.185Z,98065.08
2023-10-26T06:31:46.732Z,98062.72
2023-10-26T06:34:15.084Z,98063.83
2023-10-26T06:36:43.592Z,98064.77
2023-10-26T06:39:12.204Z,98061.93
2023-10-26T06:41:40.812Z,98059.97
2023-10-26T06:44:11.810Z,98066.02
2023-10-26T06:46:40.655Z,98062.45
2023-10-26T06:49:26.595Z,98069.69
2023-10-26T06:51:57.896Z,98067.66
2023-10-26T06:54:26.285Z,98066.29
2023-10-26T06:56:55.683Z,98067.54
2023-10-26T06:59:24.268Z,98068.24
2023-10-26T07:02:09.812Z,98067.64
2023-10-26T07:04:40.785Z,98068.40
2023-10-26T07:07:09.407Z,98070.52
2023-10-26T07:09:37.977Z,98070.95
2023-10-26T07:12:08.735Z,98074.14
2023-10-26T07:14:40.119Z,98076.48
2023-10-26T07:17:08.607Z,98081.59
2023-10-26T07:19:36.977Z,98080.86
2023-10-26T07:22:06.037Z,98081.67
2023-10-26T07:24:35.762Z,98084.52
2023-10-26T07:27:05.392Z,98088.23
2023-10-26T07:29:34.505Z,98087.61
2023-10-26T07:32:03.242Z,98088.42
2023-10-26T07:34:31.724Z,98090.03
2023-10-26T07:37:00.142Z,98088.27
2023-10-26T07:39:48.116Z,98091.13
2023-10-26T07:42:17.328Z,98094.89
2023-10-26T07:44:48.615Z,98093.78
2023-10-26T07:47:17.101Z,98095.66
2023-10-26T07:49:46.553Z,98097.13
2023-10-26T07:52:15.544Z,98102.55
2023-10-26T07:54:45.148Z,98100.46
2023-10-26T07:57:14.149Z,98103.65
2023-10-26T07:59:42.790Z,98105.23
2023-10-26T08:02:14.865Z,98106.13
2023-10-26T08:04:43.502Z,98105.58
2023-10-26T08:07:12.107Z,98104.86
2023-10-26T08:09:40.589Z,98104.80
2023-10-26T08:12:11.119Z,98107.58
2023-10-26T08:16:05.388Z,98113.12
2023-10-26T08:17:29.285Z,98114.50
2023-10-26T08:20:04.998Z,98113.14
2023-10-26T08:22:36.129Z,98116.42
2023-10-26T08:25:05.568Z,98117.58
2023-10-26T08:27:36.519Z,98118.81
2023-10-26T08:30:06.471Z,98120.27
2023-10-26T08:32:39.531Z,98121.88
2023-10-26T08:35:09.572Z,98118.55
2023-10-26T08:37:38.356Z,98119.90
2023-10-26T08:40:11.996Z,98122.43
2023-10-26T08:42:40.915Z,98122.03
2023-10-26T08:45:13.516Z,98125.82
2023-10-26T08:47:42.961Z,98126.93
2023-10-26T08:50:16.320Z,98123.27
2023-10-26T08:52:45.689Z,98120.98
2023-10-26T08:55:15.070Z,98125.23
2023-10-26T08:57:52.305Z,98128.73
2023-10-26T09:00:21.025Z,98130.14
2023-10-26T09:02:51.109Z,98138.86
2023-10-26T09:05:20.837Z,98138.44
2023-10-26T09:07:49.701Z,98140.80
2023-10-26T09:10:29.499Z,98142.33
2023-10-26T09:13:02.208Z,98149.00
2023-10-26T09:15:31.411Z,98142.20
2023-10-26T09:18:10.262Z,98151.84
2023-10-26T09:20:39.464Z,98154.36
2023-10-26T09:23:10.765Z,98149.20
2023-10-26T09:25:39.284Z,98148.77
2023-10-26T09:28:10.607Z,98143.77
2023-10-26T09:30:39.940Z,98148.55
2023-10-26T09:33:23.750Z,98148.35
2023-10-26T09:35:53.099Z,98144.85
2023-10-26T09:38:35.802Z,98149.02
2023-10-26T09:41:06.370Z,98152.70
2023-10-26T09:43:35.474Z,98151.98
2023-10-26T09:46:04.054Z,98150.33
2023-10-26T09:48:33.637Z,98154.95
2023-10-26T09:51:06.527Z,98153.45
2023-10-26T09:53:37.460Z,98149.27
2023-10-26T09:56:11.774Z,98150.73
2023-10-26T09:58:42.467Z,98150.39
2023-10-26T10:01:33.636Z,98147.86
2023-10-26T10:04:02.998Z,98138.19
2023-10-26T10:06:52.095Z,98145.58
2023-10-26T10:09:23.540Z,98146.52
2023-10-26T10:12:28.114Z,98147.56
2023-10-26T10:15:15.396Z,98137.73
2023-10-26T10:18:13.917Z,98144.38
2023-10-26T10:20:43.193Z,98140.38
2023-10-26T10:23:30.179Z,98136.51
2023-10-26T10:26:15.591Z,98138.39
2023-10-26T10:28:54.343Z,98136.30
2023-10-26T10:31:42.072Z,98134.05
2023-10-26T10:34:19.981Z,98131.63
2023-10-26T10:37:12.744Z,98133.30
2023-10-26T10:40:11.736Z,98132.56
2023-10-26T10:42:41.410Z,98117.94
2023-10-26T10:45:15.060Z,98118.44
2023-10-26T10:47:44.814Z,98117.22
2023-10-26T10:50:18.317Z,98117.14
2023-10-26T10:52:48.099Z,98114.91
2023-10-26T10:55:21.245Z,98110.17
2023-10-26T10:57:54.103Z,98101.73
2023-10-26T11:00:23.314Z,98099.59
2023-10-26T11:02:57.142Z,98099.61
2023-10-26T11:05:37.275Z,98098.98
2023-10-26T11:08:07.627Z,98100.24
2023-10-26T11:10:36.696Z,98101.63
2023-10-26T11:13:05.718Z,98102.89
2023-10-26T11:15:35.106Z,98104.89
2023-10-26T11:18:05.562Z,98105.10
2023-10-26T11:20:37.071Z,98105.86
2023-10-26T11:23:06.153Z,98118.77
2023-10-26T11:25:34.976Z,98116.73
2023-10-26T11:28:04.634Z,98106.43
2023-10-26T11:30:47.251Z,98118.70
2023-10-26T11:33:30.519Z,98123.58
2023-10-26T11:35:59.488Z,98129.14
2023-10-26T11:38:28.129Z,98129.77
2023-10-26T11:40:56.560Z,98128.44
2023-10-26T11:43:35.734Z,98136.64
2023-10-26T11:46:04.720Z,98135.56
2023-10-26T11:48:33.748Z,98135.66
2023-10-26T11:51:05.960Z,98135.84
2023-10-26T11:53:35.895Z,98137.32
2023-10-26T11:56:07.302Z,98136.09
2023-10-26T11:58:36.338Z,98139.52
2023-10-26T12:01:05.331Z,98144.52
2023-10-26T12:03:33.808Z,98147.84
2023-10-26T12:06:02.558Z,98152.80
2023-10-26T12:08:31.022Z,98155.73
2023-10-26T12:10:59.765Z,98149.69
2023-10-26T12:13:28.146Z,98149.43
2023-10-26T12:15:57.491Z,98148.16
2023-10-26T12:18:27.554Z,98145.54
2023-10-26T12:20:56.177Z,98152.27
2023-10-26T12:23:24.738Z,98154.16
2023-10-26T12:25:53.154Z,98157.88
2023-10-26T12:28:25.593Z,98155.16
2023-10-26T12:30:55.116Z,98158.98
2023-10-26T12:33:23.635Z,98165.13
2023-10-26T12:35:52.134Z,98167.16
2023-10-26T12:38:24.246Z,98163.73
2023-10-26T12:40:52.644Z,98165.10
2023-10-26T12:43:20.930Z,98168.94
2023-10-26T12:45:49.377Z,98171.45
2023-10-26T12:48:17.970Z,98175.58
2023-10-26T12:50:46.519Z,98178.35
2023-10-26T12:53:14.944Z,98173.85
2023-10-26T12:55:43.643Z,98170.75
2023-10-26T12:58:12.096Z,98170.61
2023-10-26T13:00:40.645Z,98175.58
2023-10-26T13:03:09.228Z,98173.40
2023-10-26T13:05:37.815Z,98183.59
2023-10-26T13:08:06.908Z,98190.56
2023-10-26T13:10:35.772Z,98190.41
2023-10-26T13:13:05.454Z,98190.73
2023-10-26T13:15:34.099Z,98195.55
2023-10-26T13:18:05.416Z,98196.54
2023-10-26T13:20:33.926Z,98193.01
2023-10-26T13:23:02.610Z,98194.78
2023-10-26T13:25:31.547Z,98190.98
2023-10-26T13:28:01.675Z,98186.77
2023-10-26T13:30:30.251Z,98196.23
2023-10-26T13:32:59.026Z,98190.23
2023-10-26T13:35:30.432Z,98185.98
2023-10-26T13:37:58.843Z,98188.52
2023-10-26T13:40:30.669Z,98192.11
2023-10-26T13:42:59.144Z,98197.60
2023-10-26T13:45:29.608Z,98200.56
2023-10-26T13:48:00.227Z,98197.20
2023-10-26T13:50:29.973Z,98202.20
2023-10-26T13:52:59.274Z,98201.46
2023-10-26T13:55:28.529Z,98204.06
2023-10-26T13:57:57.158Z,98206.62
2023-10-26T14:00:25.589Z,98203.61
2023-10-26T14:02:53.985Z,98206.27
2023-10-26T14:07:56.291Z,98212.60
2023-10-26T14:10:25.686Z,98212.48
2023-10-26T14:12:54.402Z,98213.45
2023-10-26T14:15:23.561Z,98214.08
2023-10-26T14:17:52.191Z,98216.45
2023-10-26T14:20:20.928Z,98213.11
2023-10-26T14:22:49.344Z,98211.62
2023-10-26T14:25:17.908Z,98216.27
2023-10-26T14:27:46.562Z,98220.00
2023-10-26T14:30:15.382Z,98219.70
2023-10-26T14:32:45.885Z,98223.52
2023-10-26T14:35:15.131Z,98213.25
2023-10-26T14:37:49.724Z,98234.83
2023-10-26T14:40:19.251Z,98241.05
2023-10-26T14:42:48.088Z,98246.63
2023-10-26T14:45:17.100Z,98247.38
2023-10-26T14:47:45.599Z,98246.10
2023-10-26T14:50:14.393Z,98246.07
2023-10-26T14:52:43.108Z,98249.95
2023-10-26T14:55:11.814Z,98255.97
2023-10-26T14:57:40.568Z,98259.31
2023-10-26T15:00:11.717Z,98259.34
2023-10-26T15:02:40.462Z,98260.86
2023-10-26T15:05:10.114Z,98264.22
2023-10-26T15:07:38.660Z,98270.00
2023-10-26T15:10:23.102Z,98273.27
2023-10-26T15:12:54.686Z,98275.88
2023-10-26T15:15:24.731Z,98278.98
2023-10-26T15:17:54.093Z,98281.65
2023-10-26T15:20:22.569Z,98282.70
2023-10-26T15:22:52.993Z,98285.84
2023-10-26T15:25:21.820Z,98289.49
2023-10-26T15:27:52.353Z,98290.23
2023-10-26T15:30:20.922Z,98294.81
2023-10-26T15:32:49.315Z,98293.79
2023-10-26T15:35:18.305Z,98294.77
2023-10-26T15:37:47.153Z,98299.42
2023-10-26T15:40:15.883Z,98295.18
2023-10-26T15:42:44.562Z,98297.74
2023-10-26T15:45:13.142Z,98300.45
2023-10-26T15:47:42.192Z,98299.09
2023-10-26T15:50:11.800Z,98299.74
2023-10-26T15:52:40.224Z,98295.91
2023-10-26T15:55:11.566Z,98290.77
2023-10-26T15:57:40.169Z,98288.52
2023-10-26T16:00:11.110Z,98296.12
2023-10-26T16:02:45.292Z,98296.14
2023-10-26T16:05:15.708Z,98295.38
2023-10-26T16:07:44.559Z,98294.98
2023-10-26T16:10:13.410Z,98295.02
2023-10-26T16:12:41.906Z,98287.73
2023-10-26T16:15:11.514Z,98288.11
2023-10-26T16:17:41.293Z,98287.73
2023-10-26T16:20:11.640Z,98285.64
2023-10-26T16:22:40.220Z,98289.04
2023-10-26T16:25:09.962Z,98290.66
2023-10-26T16:27:38.526Z,98287.77
2023-10-26T16:30:10.003Z,98283.64
2023-10-26T16:32:39.529Z,98282.84
2023-10-26T16:35:10.275Z,98276.53
2023-10-26T16:37:38.676Z,98278.84
2023-10-26T16:40:09.499Z,98275.84
2023-10-26T16:42:37.954Z,98271.38
2023-10-26T16:45:08.013Z,98268.25
2023-10-26T16:47:44.343Z,98269.06
2023-10-26T16:50:22.880Z,98271.36
2023-10-26T16:52:51.428Z,98272.66
2023-10-26T16:55:20.482Z,98267.07
2023-10-26T16:57:48.938Z,98272.33
2023-10-26T17:00:19.999Z,98275.62
2023-10-26T17:02:49.729Z,98276.84
2023-10-26T17:05:18.350Z,98278.55
2023-10-26T17:07:47.257Z,98279.73
2023-10-26T17:10:18.437Z,98281.36
2023-10-26T17:12:47.163Z,98274.61
2023-10-26T17:15:18.766Z,98272.10
2023-10-26T17:17:51.998Z,98272.38
2023-10-26T17:20:20.488Z,98266.72
2023-10-26T17:22:49.262Z,98263.71
2023-10-26T17:25:19.170Z,98266.21
2023-10-26T17:27:47.743Z,98266.84
2023-10-26T17:30:16.597Z,98268.54
2023-10-26T17:32:47.438Z,98269.84
2023-10-26T17:35:16.044Z,98268.58
2023-10-26T17:37:44.586Z,98269.12
2023-10-26T17:40:14.366Z,98264.84
2023-10-26T17:42:42.996Z,98273.98
2023-10-26T17:45:12.093Z,98273.08
2023-10-26T17:47:42.891Z,98266.89
2023-10-26T17:50:11.960Z,98266.59
2023-10-26T17:52:40.579Z,98269.70
2023-10-26T17:55:12.476Z,98265.82
2023-10-26T17:57:41.236Z,98257.06
2023-10-26T18:00:12.214Z,98258.36
2023-10-26T18:02:42.392Z,98254.64
2023-10-26T18:05:12.402Z,98258.86
2023-10-26T18:07:40.898Z,98260.54
2023-10-26T18:10:10.808Z,98262.35
2023-10-26T18:12:39.381Z,98259.81
2023-10-26T18:15:12.527Z,98258.98
2023-10-26T18:17:44.474Z,98258.30
2023-10-26T18:20:13.854Z,98257.17
2023-10-26T18:22:42.673Z,98261.55
2023-10-26T18:25:11.061Z,98259.48
2023-10-26T18:27:39.604Z,98257.58
2023-10-26T18:30:13.768Z,98254.30
2023-10-26T18:32:42.612Z,98252.66
2023-10-26T18:35:11.695Z,98250.59
2023-10-26T18:37:44.549Z,98258.77
2023-10-26T18:40:14.345Z,98260.89
2023-10-26T18:42:42.880Z,98260.55
2023-10-26T18:45:12.524Z,98244.06
2023-10-26T18:47:41.523Z,98256.95
2023-10-26T18:50:11.115Z,98256.62
2023-10-26T18:52:39.508Z,98259.91
2023-10-26T18:55:10.155Z,98262.96
2023-10-26T18:57:39.505Z,98265.30
2023-10-26T19:00:11.149Z,98261.85
2023-10-26T19:02:39.696Z,98263.65
2023-10-26T19:05:09.953Z,98263.28
2023-10-26T19:07:40.969Z,98267.86
2023-10-26T19:10:11.028Z,98272.55
2023-10-26T19:12:39.573Z,98276.15
2023-10-26T19:15:10.202Z,98286.85
2023-10-26T19:17:38.743Z,98292.04
2023-10-26T19:20:11.087Z,98288.51
2023-10-26T19:22:39.545Z,98283.83
2023-10-26T19:25:09.949Z,98280.27
2023-10-26T19:27:38.387Z,98283.66
2023-10-26T19:30:11.195Z,98280.61
2023-10-26T19:32:39.664Z,98277.15
2023-10-26T19:35:09.331Z,98279.96
2023-10-26T19:37:37.954Z,98272.80
2023-10-26T19:40:08.689Z,98283.67
2023-10-26T19:42:38.989Z,98285.48
2023-10-26T19:45:09.585Z,98290.16
2023-10-26T19:47:39.685Z,98294.42
2023-10-26T19:50:10.371Z,98297.52
2023-10-26T19:52:39.648Z,98302.55
2023-10-26T19:55:10.279Z,98299.29
2023-10-26T19:57:38.770Z,98298.48
2023-10-26T20:00:16.042Z,98303.30
2023-10-26T20:02:44.841Z,98303.61
2023-10-26T20:05:16.984Z,98307.43
2023-10-26T20:07:45.587Z,98301.40
2023-10-26T20:10:14.024Z,98293.95
2023-10-26T20:12:42.654Z,98304.30
2023-10-26T20:15:11.817Z,98305.61
2023-10-26T20:17:40.286Z,98307.71
2023-10-26T20:20:11.936Z,98311.73
2023-10-26T20:22:40.745Z,98309.10
2023-10-26T20:25:10.820Z,98310.20
2023-10-26T20:27:39.430Z,98312.84
2023-10-26T20:30:10.287Z,98311.46
2023-10-26T20:32:38.837Z,98309.97
2023-10-26T20:35:09.220Z,98312.64
2023-10-26T20:37:39.419Z,98312.19
2023-10-26T20:40:10.574Z,98312.73
2023-10-26T20:42:43.199Z,98307.37
2023-10-26T20:45:12.620Z,98305.77
2023-10-26T20:47:41.417Z,98299.51
2023-10-26T20:50:12.147Z,98293.61
2023-10-26T20:52:40.534Z,98293.29
2023-10-26T20:55:10.552Z,98292.05
2023-10-26T20:57:39.152Z,98294.45
2023-10-26T21:00:10.122Z,98300.54
2023-10-26T21:02:39.834Z,98309.00
2023-10-26T21:05:08.702Z,98298.89
2023-10-26T21:07:37.762Z,98290.06
2023-10-26T21:10:08.472Z,98283.21
2023-10-26T21:12:37.217Z,98289.17
2023-10-26T21:15:07.976Z,98301.60
2023-10-26T21:17:37.184Z,98302.42
2023-10-26T21:20:07.903Z,98297.21
2023-10-26T21:22:36.540Z,98303.70
2023-10-26T21:25:07.019Z,98298.74
2023-10-26T21:27:36.933Z,98300.79
2023-10-26T21:30:07.639Z,98308.49
2023-10-26T21:32:36.158Z,98317.11
2023-10-26T21:35:06.247Z,98312.74
2023-10-26T21:37:34.631Z,98317.06
2023-10-26T21:40:05.404Z,98319.84
2023-10-26T21:42:33.858Z,98320.98
2023-10-26T21:45:04.110Z,98317.85
2023-10-26T21:47:35.239Z,98312.70
2023-10-26T21:50:05.001Z,98306.98
2023-10-26T21:52:33.531Z,98303.64
2023-10-26T21:55:01.978Z,98300.06
2023-10-26T21:57:30.393Z,98295.85
2023-10-26T21:59:58.718Z,98293.80
2023-10-26T22:02:29.673Z,98297.34
2023-10-26T22:04:58.425Z,98295.45
2023-10-26T22:07:26.817Z,98292.11
2023-10-26T22:09:56.118Z,98287.47
2023-10-26T22:12:24.839Z,98285.65
2023-10-26T22:14:54.361Z,98288.08
2023-10-26T22:17:24.384Z,98286.73
2023-10-26T22:19:53.371Z,98282.89
2023-10-26T22:22:21.855Z,98281.45
2023-10-26T22:24:50.470Z,98277.19
2023-10-26T22:27:19.056Z,98275.42
2023-10-26T22:29:47.391Z,98280.73
2023-10-26T22:32:15.816Z,98278.52
2023-10-26T22:34:44.171Z,98281.98
2023-10-26T22:37:12.665Z,98279.36
2023-10-26T22:39:41.176Z,98280.11
2023-10-26T22:42:09.695Z,98276.11
2023-10-26T22:44:38.441Z,98281.92
2023-10-26T22:47:08.075Z,98276.52
2023-10-26T22:49:36.611Z,98277.14
2023-10-26T22:52:06.982Z,98276.06
2023-10-26T22:54:35.621Z,98274.45
2023-10-26T22:57:05.178Z,98276.30
2023-10-26T22:59:34.279Z,98273.41
2023-10-26T23:02:02.849Z,98270.44
2023-10-26T23:04:31.356Z,98266.94
2023-10-26T23:06:59.998Z,98266.93
2023-10-26T23:09:28.770Z,98273.04
2023-10-26T23:11:57.180Z,98271.84
2023-10-26T23:14:25.643Z,98269.74
2023-10-26T23:16:54.063Z,98259.33
2023-10-26T23:19:22.552Z,98254.13
2023-10-26T23:21:50.991Z,98255.56
2023-10-26T23:24:20.214Z,98254.65
2023-10-26T23:26:48.929Z,98257.42
2023-10-26T23:29:17.407Z,98259.10
2023-10-26T23:31:45.955Z,98260.95
2023-10-26T23:34:16.814Z,98262.11
2023-10-26T23:36:45.209Z,98266.65
2023-10-26T23:39:13.774Z,98258.77
2023-10-26T23:41:42.520Z,98252.06
2023-10-26T23:44:10.999Z,98250.98
2023-10-26T23:46:39.320Z,98242.94
2023-10-26T23:49:07.692Z,98239.09
2023-10-26T23:51:36.205Z,98241.21
2023-10-26T23:54:05.379Z,98242.02
2023-10-26T23:56:33.742Z,98237.55
2023-10-26T23:59:03.002Z,98233.95
